Time;durP1;ratioP1;P1;durP2;ratioP2;P2;SDS_P1;SDS_P2;PMS_P1;PMS_P2;Temp;Humidity;BMP_temperature;BMP_pressure;BME280_temperature;BME280_humidity;BME280_pressure;Samples;Min_cycle;Max_cycle;Signal;HPM_P1;HPM_P2
2022/03/11 00:02:16;;;;;;;;;;;8.20;1.00;;;;;;5071854;28;19959;-70
2022/03/11 00:04:41;;;;;;;;;;;8.20;1.00;;;;;;5072740;28;19942;-71
2022/03/11 00:07:08;;;;;;;;;;;;;;;;;;5072247;28;19908;-75
2022/03/11 00:09:34;;;;;;;;;;;8.00;1.00;;;;;;5072336;28;19908;-71
2022/03/11 00:11:59;;;;;;;;;;;8.00;1.00;;;;;;5072548;28;19908;-71
2022/03/11 00:14:25;;;;;;;;;;;8.00;1.00;;;;;;5071674;28;19966;-70
2022/03/11 00:16:50;;;;;;;;;;;8.00;1.00;;;;;;5072475;28;19909;-70
2022/03/11 00:19:16;;;;;;;;;;;7.90;1.00;;;;;;5071604;28;20019;-71
2022/03/11 00:21:42;;;;;;;;;;;;;;;;;;5072358;28;19957;-70
2022/03/11 00:24:08;;;;;;;;;;;;;;;;;;5071952;28;19977;-75
2022/03/11 00:26:34;;;;;;;;;;;8.00;1.00;;;;;;5072171;28;19909;-71
2022/03/11 00:29:00;;;;;;;;;;;7.90;1.00;;;;;;5071978;28;20424;-71
2022/03/11 00:31:27;;;;;;;;;;;8.00;1.00;;;;;;5071526;28;19916;-70
2022/03/11 00:33:53;;;;;;;;;;;7.90;1.00;;;;;;5054251;28;19915;-70
2022/03/11 00:36:19;;;;;;;;;;;7.90;1.00;;;;;;5071425;28;19909;-71
2022/03/11 00:38:44;;;;;;;;;;;7.80;1.00;;;;;;5072036;28;19908;-71
2022/03/11 00:41:11;;;;;;;;;;;;;;;;;;5053674;28;19912;-76
2022/03/11 00:43:37;;;;;;;;;;;;;;;;;;5054172;28;19909;-71
2022/03/11 00:46:02;;;;;;;;;;;7.80;1.00;;;;;;5072298;28;20270;-71
2022/03/11 00:48:28;;;;;;;;;;;7.80;1.00;;;;;;5071375;28;19987;-71
2022/03/11 00:50:54;;;;;;;;;;;;;;;;;;5072150;28;20478;-70
2022/03/11 00:53:19;;;;;;;;;;;7.80;1.00;;;;;;5071286;28;19958;-71
2022/03/11 00:55:45;;;;;;;;;;;7.80;1.00;;;;;;5072156;28;19908;-70
2022/03/11 00:58:11;;;;;;;;;;;;;;;;;;5071554;28;19919;-75
2022/03/11 01:00:37;;;;;;;;;;;;;;;;;;5071800;28;19967;-71
2022/03/11 01:03:02;;;;;;;;;;;7.80;1.00;;;;;;5072007;28;19944;-70
2022/03/11 01:05:28;;;;;;;;;;;7.80;1.00;;;;;;5071199;28;19913;-70
2022/03/11 01:07:53;;;;;;;;;;;7.80;1.00;;;;;;5072053;28;19954;-70
2022/03/11 01:10:19;;;;;;;;;;;7.80;1.00;;;;;;5071254;28;19908;-71
2022/03/11 01:12:45;;;;;;;;;;;7.70;1.00;;;;;;5056923;28;19908;-71
2022/03/11 01:15:11;;;;;;;;;;;;;;;;;;5075301;28;19912;-75
2022/03/11 01:17:37;;;;;;;;;;;7.60;1.00;;;;;;5075388;28;19908;-71
2022/03/11 01:20:03;;;;;;;;;;;7.60;1.00;;;;;;5075789;28;19966;-71
2022/03/11 01:22:29;;;;;;;;;;;7.60;1.00;;;;;;5056855;28;20428;-71
2022/03/11 01:24:55;;;;;;;;;;;7.60;1.00;;;;;;5075498;28;19908;-71
2022/03/11 01:27:20;;;;;;;;;;;7.50;1.00;;;;;;5074748;28;19912;-71
2022/03/11 01:29:46;;;;;;;;;;;7.50;1.00;;;;;;5075335;28;19920;-71
2022/03/11 01:32:12;;;;;;;;;;;;;;;;;;5075110;28;19913;-75
2022/03/11 01:34:37;;;;;;;;;;;7.50;1.00;;;;;;5057255;28;19908;-71
2022/03/11 01:37:04;;;;;;;;;;;7.40;1.00;;;;;;5075936;28;20366;-71
2022/03/11 01:39:29;;;;;;;;;;;7.40;1.00;;;;;;5058226;28;19912;-71
2022/03/11 01:41:55;;;;;;;;;;;7.40;1.00;;;;;;5076197;28;19961;-70
2022/03/11 01:44:22;;;;;;;;;;;7.50;1.00;;;;;;5075069;28;19919;-70
2022/03/11 01:46:48;;;;;;;;;;;7.40;1.00;;;;;;5075138;28;19912;-70
2022/03/11 01:49:14;;;;;;;;;;;;;;;;;;5074721;28;20341;-75
2022/03/11 01:51:41;;;;;;;;;;;7.30;1.00;;;;;;5074881;28;20361;-71
2022/03/11 01:54:07;;;;;;;;;;;7.20;1.00;;;;;;5074950;28;20291;-71
2022/03/11 01:56:33;;;;;;;;;;;7.20;1.00;;;;;;5074214;28;20356;-71
2022/03/11 01:58:58;;;;;;;;;;;7.20;1.00;;;;;;5075268;28;19916;-71
2022/03/11 02:01:24;;;;;;;;;;;7.10;1.00;;;;;;5074159;28;20331;-71
2022/03/11 02:03:50;;;;;;;;;;;7.10;1.00;;;;;;5075015;28;19954;-70
2022/03/11 02:06:16;;;;;;;;;;;;;;;;;;5074195;28;19908;-74
2022/03/11 02:08:42;;;;;;;;;;;7.10;1.00;;;;;;5074889;28;19931;-71
2022/03/11 02:11:08;;;;;;;;;;;7.00;1.00;;;;;;5074779;28;19978;-71
2022/03/11 02:13:43;;;;;;;;;;;7.00;1.00;;;;;;5073911;28;20409;-71
2022/03/11 02:16:13;;;;;;;;;;;7.00;1.00;;;;;;5056664;28;19932;-70
2022/03/11 02:18:39;;;;;;;;;;;7.00;1.00;;;;;;5074118;28;19908;-71
2022/03/11 02:21:04;;;;;;;;;;;7.10;1.00;;;;;;5074442;28;20007;-71
2022/03/11 02:23:36;;;;;;;;;;;7.10;1.00;;;;;;5073303;28;20421;-70
2022/03/11 02:26:01;;;;;;;;;;;7.10;1.00;;;;;;5074491;28;20058;-70
2022/03/11 02:28:33;;;;;;;;;;;7.00;1.00;;;;;;5073408;28;19966;-70
2022/03/11 02:30:58;;;;;;;;;;;6.80;1.00;;;;;;5074331;28;19913;-70
2022/03/11 02:33:24;;;;;;;;;;;6.80;1.00;;;;;;5073480;28;19915;-70
2022/03/11 02:35:49;;;;;;;;;;;6.70;1.00;;;;;;5074286;28;20379;-70
2022/03/11 02:38:15;;;;;;;;;;;;;;;;;;5073888;28;19994;-76
2022/03/11 02:40:41;;;;;;;;;;;;;;;;;;5073731;28;20009;-70
2022/03/11 02:43:07;;;;;;;;;;;;;;;;;;5074068;28;20311;-70
2022/03/11 02:45:32;;;;;;;;;;;6.80;1.00;;;;;;5073233;28;19908;-71
2022/03/11 02:47:58;;;;;;;;;;;6.70;1.00;;;;;;5073982;28;19995;-70
2022/03/11 02:50:23;;;;;;;;;;;6.60;1.00;;;;;;5073262;28;19958;-70
2022/03/11 02:52:49;;;;;;;;;;;6.60;1.00;;;;;;5073910;28;19912;-70
2022/03/11 02:55:15;;;;;;;;;;;;;;;;;;5073697;28;19996;-73
2022/03/11 02:57:41;;;;;;;;;;;;;;;;;;5073726;28;19919;-72
2022/03/11 03:00:07;;;;;;;;;;;6.70;1.00;;;;;;5074044;28;19971;-70
2022/03/11 03:02:32;;;;;;;;;;;;;;;;;;5072874;28;19920;-71
2022/03/11 03:04:58;;;;;;;;;;;6.60;1.00;;;;;;5073759;28;20387;-70
2022/03/11 03:07:24;;;;;;;;;;;6.60;1.00;;;;;;5072914;28;19934;-70
2022/03/11 03:09:49;;;;;;;;;;;6.70;1.00;;;;;;5073560;28;20399;-70
2022/03/11 03:12:15;;;;;;;;;;;6.50;1.00;;;;;;5073499;28;19909;-70
2022/03/11 03:14:40;;;;;;;;;;;6.50;1.00;;;;;;5072689;28;19916;-70
2022/03/11 03:17:06;;;;;;;;;;;6.50;1.00;;;;;;5073430;28;19909;-70
2022/03/11 03:19:31;;;;;;;;;;;6.40;1.00;;;;;;5072549;28;20253;-70
2022/03/11 03:21:57;;;;;;;;;;;6.40;1.00;;;;;;5073277;28;19915;-70
2022/03/11 03:24:23;;;;;;;;;;;;;;;;;;5072501;28;20315;-70
2022/03/11 03:26:48;;;;;;;;;;;6.30;1.00;;;;;;5073180;28;19908;-70
2022/03/11 03:29:14;;;;;;;;;;;6.30;1.00;;;;;;5072893;28;20337;-70
2022/03/11 03:31:39;;;;;;;;;;;6.30;1.00;;;;;;5072254;28;19908;-70
2022/03/11 03:34:05;;;;;;;;;;;6.20;1.00;;;;;;5072454;28;19955;-70
2022/03/11 03:36:30;;;;;;;;;;;6.10;1.00;;;;;;5072245;28;20364;-70
2022/03/11 03:38:56;;;;;;;;;;;6.10;1.00;;;;;;5072958;28;19916;-70
2022/03/11 03:41:22;;;;;;;;;;;;;;;;;;5072240;28;19999;-74
2022/03/11 03:43:47;;;;;;;;;;;6.10;1.00;;;;;;5072968;28;19956;-70
2022/03/11 03:46:14;;;;;;;;;;;6.10;1.00;;;;;;5072901;28;20261;-70
2022/03/11 03:48:40;;;;;;;;;;;;;;;;;;5072023;28;19991;-70
2022/03/11 03:51:06;;;;;;;;;;;6.00;1.00;;;;;;5072842;28;20357;-71
2022/03/11 03:53:31;;;;;;;;;;;6.20;1.00;;;;;;5071987;28;19916;-70
2022/03/11 03:55:57;;;;;;;;;;;6.10;1.00;;;;;;5072642;28;19931;-70
2022/03/11 03:58:23;;;;;;;;;;;;;;;;;;5071991;28;19938;-74
2022/03/11 04:00:48;;;;;;;;;;;6.10;1.00;;;;;;5072657;28;19920;-70
2022/03/11 04:03:14;;;;;;;;;;;6.00;1.00;;;;;;5072664;28;19915;-70
2022/03/11 04:05:40;;;;;;;;;;;6.10;1.00;;;;;;5072030;28;19919;-70
2022/03/11 04:08:05;;;;;;;;;;;5.90;1.00;;;;;;5072534;28;19987;-69
2022/03/11 04:10:31;;;;;;;;;;;5.90;1.00;;;;;;5071775;28;20319;-69
2022/03/11 04:12:57;;;;;;;;;;;5.90;1.00;;;;;;5072472;28;19912;-71
2022/03/11 04:15:23;;;;;;;;;;;;;;;;;;5071847;28;19934;-73
2022/03/11 04:17:49;;;;;;;;;;;5.90;1.00;;;;;;5072411;28;19953;-69
2022/03/11 04:20:14;;;;;;;;;;;5.90;1.00;;;;;;5072387;28;19913;-70
2022/03/11 04:22:41;;;;;;;;;;;5.80;1.00;;;;;;5071830;28;19912;-69
2022/03/11 04:25:07;;;;;;;;;;;5.70;1.00;;;;;;5054378;28;19909;-70
2022/03/11 04:27:33;;;;;;;;;;;5.80;1.00;;;;;;5071545;28;19916;-69
2022/03/11 04:29:58;;;;;;;;;;;5.80;1.00;;;;;;5073489;28;19920;-70
2022/03/11 04:32:24;;;;;;;;;;;;;;;;;;5090607;28;19978;-73
2022/03/11 04:34:50;;;;;;;;;;;;;;;;;;5092386;28;20370;-69
2022/03/11 04:37:16;;;;;;;;;;;5.80;1.00;;;;;;5092587;28;19947;-69
2022/03/11 04:39:41;;;;;;;;;;;5.70;1.00;;;;;;5092451;28;19939;-70
2022/03/11 04:42:09;;;;;;;;;;;5.70;1.00;;;;;;5092590;28;19908;-70
2022/03/11 04:44:34;;;;;;;;;;;5.70;1.00;;;;;;5091546;28;20423;-70
2022/03/11 04:47:00;;;;;;;;;;;5.70;1.00;;;;;;5095971;28;19908;-70
2022/03/11 04:49:26;;;;;;;;;;;;;;;;;;5095687;28;19908;-74
2022/03/11 04:51:52;;;;;;;;;;;5.60;1.00;;;;;;5096455;28;19908;-70
2022/03/11 04:54:17;;;;;;;;;;;5.60;1.00;;;;;;5096485;28;20391;-70
2022/03/11 04:56:43;;;;;;;;;;;5.60;1.00;;;;;;5094263;28;19920;-70
2022/03/11 04:59:08;;;;;;;;;;;5.60;1.00;;;;;;5096333;28;20422;-70
2022/03/11 05:01:34;;;;;;;;;;;5.60;1.00;;;;;;5095089;28;19912;-70
2022/03/11 05:03:59;;;;;;;;;;;5.50;1.00;;;;;;5078020;28;19915;-70
2022/03/11 05:06:25;;;;;;;;;;;;;;;;;;5077611;28;20009;-73
2022/03/11 05:08:50;;;;;;;;;;;5.50;1.00;;;;;;5077724;28;19974;-70
2022/03/11 05:11:16;;;;;;;;;;;5.50;1.00;;;;;;5096196;28;20011;-69
2022/03/11 05:13:41;;;;;;;;;;;5.50;1.00;;;;;;5077119;28;19995;-71
2022/03/11 05:16:07;;;;;;;;;;;5.50;1.00;;;;;;5096030;28;19908;-70
2022/03/11 05:18:32;;;;;;;;;;;5.50;1.00;;;;;;5095203;28;19915;-70
2022/03/11 05:20:58;;;;;;;;;;;5.50;1.00;;;;;;5095954;28;20361;-70
2022/03/11 05:23:24;;;;;;;;;;;;;;;;;;5095800;28;19908;-74
2022/03/11 05:25:50;;;;;;;;;;;5.50;1.00;;;;;;5095321;28;19908;-70
2022/03/11 05:28:15;;;;;;;;;;;5.40;1.00;;;;;;5095545;28;20352;-70
2022/03/11 05:30:41;;;;;;;;;;;5.40;1.00;;;;;;5076970;28;19920;-70
2022/03/11 05:33:06;;;;;;;;;;;5.40;1.00;;;;;;5077650;28;20439;-69
2022/03/11 05:35:32;;;;;;;;;;;5.50;1.00;;;;;;5095069;28;20291;-70
2022/03/11 05:37:57;;;;;;;;;;;5.40;1.00;;;;;;5095795;28;19915;-69
2022/03/11 05:40:23;;;;;;;;;;;5.40;1.00;;;;;;5095729;28;19967;-70
2022/03/11 05:42:49;;;;;;;;;;;5.50;1.00;;;;;;5094895;28;19912;-70
2022/03/11 05:45:14;;;;;;;;;;;5.40;1.00;;;;;;5077357;28;19908;-69
2022/03/11 05:47:40;;;;;;;;;;;5.40;1.00;;;;;;5094680;28;19908;-70
2022/03/11 05:50:06;;;;;;;;;;;5.40;1.00;;;;;;5095524;28;19908;-70
2022/03/11 05:52:34;;;;;;;;;;;5.40;1.00;;;;;;5095008;28;19912;-70
2022/03/11 05:54:59;;;;;;;;;;;5.40;1.00;;;;;;5095274;28;19931;-69
2022/03/11 05:57:25;;;;;;;;;;;5.40;1.00;;;;;;5094505;28;20357;-70
2022/03/11 05:59:50;;;;;;;;;;;5.40;1.00;;;;;;5076153;28;19931;-70
2022/03/11 06:02:16;;;;;;;;;;;5.40;1.00;;;;;;5095190;28;19916;-69
2022/03/11 06:04:41;;;;;;;;;;;5.40;1.00;;;;;;5094270;28;20379;-70
2022/03/11 06:07:07;;;;;;;;;;;5.30;1.00;;;;;;5077026;28;19956;-70
2022/03/11 06:09:33;;;;;;;;;;;5.30;1.00;;;;;;5094134;28;19915;-70
2022/03/11 06:11:58;;;;;;;;;;;5.30;1.00;;;;;;5095189;28;19914;-70
2022/03/11 06:14:24;;;;;;;;;;;5.20;1.00;;;;;;5095902;28;19939;-70
2022/03/11 06:16:49;;;;;;;;;;;5.30;1.00;;;;;;5094742;28;19912;-70
2022/03/11 06:19:15;;;;;;;;;;;5.30;1.00;;;;;;5094658;28;19965;-70
2022/03/11 06:21:40;;;;;;;;;;;5.30;1.00;;;;;;5094348;28;19927;-70
2022/03/11 06:24:06;;;;;;;;;;;;;;;;;;5076615;28;19908;-70
2022/03/11 06:26:32;;;;;;;;;;;;;;;;;;5076012;28;19915;-73
2022/03/11 06:28:57;;;;;;;;;;;5.30;1.00;;;;;;5085862;28;19920;-69
2022/03/11 06:31:23;;;;;;;;;;;5.30;1.00;;;;;;5093561;28;19912;-69
2022/03/11 06:33:49;;;;;;;;;;;;;;;;;;5072865;28;20463;-70
2022/03/11 06:36:14;;;;;;;;;;;5.30;1.00;;;;;;5095129;28;19912;-69
2022/03/11 06:38:40;;;;;;;;;;;5.30;1.00;;;;;;5093324;28;20383;-69
2022/03/11 06:41:06;;;;;;;;;;;5.30;1.00;;;;;;5093303;28;20249;-70
2022/03/11 06:43:32;;;;;;;;;;;;;;;;;;5092756;28;19909;-74
2022/03/11 06:45:58;;;;;;;;;;;5.40;1.00;;;;;;5093599;28;19958;-69
2022/03/11 06:48:23;;;;;;;;;;;5.40;1.00;;;;;;5094164;28;19942;-68
2022/03/11 06:50:49;;;;;;;;;;;5.40;1.00;;;;;;5094109;28;20024;-68
2022/03/11 06:53:15;;;;;;;;;;;;;;;;;;5095234;28;20391;-70
2022/03/11 06:55:41;;;;;;;;;;;5.30;1.00;;;;;;5074646;28;19916;-66
2022/03/11 06:58:06;;;;;;;;;;;5.40;1.00;;;;;;5094476;28;19908;-67
2022/03/11 07:00:32;;;;;;;;;;;;;;;;;;5093287;28;19962;-70
2022/03/11 07:02:58;;;;;;;;;;;5.40;1.00;;;;;;5094032;28;19915;-66
2022/03/11 07:05:24;;;;;;;;;;;5.40;1.00;;;;;;5092456;28;20074;-68
2022/03/11 07:07:50;;;;;;;;;;;;;;;;;;5092690;28;20143;-66
2022/03/11 07:10:16;;;;;;;;;;;5.40;1.00;;;;;;5093076;28;20010;-66
2022/03/11 07:12:42;;;;;;;;;;;;;;;;;;5093568;28;19908;-68
2022/03/11 07:15:08;;;;;;;;;;;5.50;1.00;;;;;;5075813;28;19908;-67
2022/03/11 07:17:34;;;;;;;;;;;5.50;1.00;;;;;;5092887;28;19908;-70
2022/03/11 07:20:00;;;;;;;;;;;5.50;1.00;;;;;;5075448;28;20333;-69
2022/03/11 07:22:26;;;;;;;;;;;5.50;1.00;;;;;;5093949;28;19911;-68
2022/03/11 07:24:51;;;;;;;;;;;5.60;1.00;;;;;;5074484;28;19904;-68
2022/03/11 07:27:17;;;;;;;;;;;;;;;;;;5093485;28;19974;-68
2022/03/11 07:29:43;;;;;;;;;;;5.60;1.00;;;;;;5090760;28;20391;-68
2022/03/11 07:32:10;;;;;;;;;;;5.60;1.00;;;;;;5076275;28;20346;-69
2022/03/11 07:34:36;;;;;;;;;;;;;;;;;;5038003;28;19909;-71
2022/03/11 07:37:02;;;;;;;;;;;;;;;;;;5055194;28;20287;-70
2022/03/11 07:39:27;;;;;;;;;;;5.70;1.00;;;;;;5072824;28;19919;-68
2022/03/11 07:41:53;;;;;;;;;;;5.70;1.00;;;;;;5072225;28;19931;-69
2022/03/11 07:44:20;;;;;;;;;;;;;;;;;;5073112;28;19959;-70
2022/03/11 07:46:46;;;;;;;;;;;5.80;1.00;;;;;;5054110;28;20373;-70
2022/03/11 07:49:11;;;;;;;;;;;5.80;1.00;;;;;;5073083;28;20003;-69
2022/03/11 07:51:37;;;;;;;;;;;5.80;1.00;;;;;;5072435;28;19912;-70
2022/03/11 07:54:03;;;;;;;;;;;5.80;1.00;;;;;;5073039;28;19909;-70
2022/03/11 07:56:29;;;;;;;;;;;5.80;1.00;;;;;;5072981;28;19931;-69
2022/03/11 07:58:56;;;;;;;;;;;5.90;1.00;;;;;;5072494;28;19909;-69
2022/03/11 08:01:21;;;;;;;;;;;;;;;;;;5072772;28;19921;-69
2022/03/11 08:03:47;;;;;;;;;;;5.90;1.00;;;;;;5053984;28;19915;-69
2022/03/11 08:06:12;;;;;;;;;;;5.90;1.00;;;;;;5072197;28;19989;-70
2022/03/11 08:08:38;;;;;;;;;;;;;;;;;;5071828;28;20388;-70
2022/03/11 08:11:04;;;;;;;;;;;5.90;1.00;;;;;;5073265;28;19961;-69
2022/03/11 08:13:30;;;;;;;;;;;6.00;1.00;;;;;;5072542;28;19958;-70
2022/03/11 08:15:56;;;;;;;;;;;6.10;1.00;;;;;;5054023;28;19904;-69
2022/03/11 08:18:21;;;;;;;;;;;6.00;1.00;;;;;;5054614;28;20276;-70
2022/03/11 08:20:47;;;;;;;;;;;6.20;1.00;;;;;;5071298;28;20086;-70
2022/03/11 08:23:13;;;;;;;;;;;6.20;1.00;;;;;;5072443;28;20349;-70
2022/03/11 08:25:38;;;;;;;;;;;;;;;;;;5071513;28;19909;-71
2022/03/11 08:28:07;;;;;;;;;;;6.30;1.00;;;;;;5072527;28;19999;-69
2022/03/11 08:30:34;;;;;;;;;;;6.40;1.00;;;;;;5054335;28;19924;-69
2022/03/11 16:21:49;;;;;;;;;;;;;;;;;;5151801;27;19919;-71
2022/03/11 16:24:15;;;;;;;;;;;12.80;1.00;;;;;;5131993;27;19911;-72
2022/03/11 16:26:41;;;;;;;;;;;12.80;1.00;;;;;;5151391;27;19969;-72
2022/03/11 16:29:07;;;;;;;;;;;;;;;;;;5150866;27;19995;-76
2022/03/11 16:31:32;;;;;;;;;;;12.60;1.00;;;;;;5151252;27;19915;-72
2022/03/11 16:33:58;;;;;;;;;;;12.40;1.00;;;;;;5151270;27;20367;-72
2022/03/11 16:36:23;;;;;;;;;;;12.40;1.00;;;;;;5150348;27;19907;-71
2022/03/11 16:38:49;;;;;;;;;;;12.40;1.00;;;;;;5143017;27;19908;-73
2022/03/11 16:41:15;;;;;;;;;;;12.30;1.00;;;;;;5140028;27;19962;-72
2022/03/11 16:43:41;;;;;;;;;;;12.20;1.00;;;;;;5151118;27;20355;-73
2022/03/11 16:46:07;;;;;;;;;;;;;;;;;;5150674;27;20244;-77
2022/03/11 16:48:32;;;;;;;;;;;12.10;1.00;;;;;;5132352;27;19914;-72
2022/03/11 16:50:59;;;;;;;;;;;12.00;1.00;;;;;;5125391;27;19946;-72
2022/03/11 16:53:25;;;;;;;;;;;;;;;;;;5092131;28;19942;-72
2022/03/11 16:55:50;;;;;;;;;;;11.90;1.00;;;;;;5109618;28;19919;-72
2022/03/11 16:58:16;;;;;;;;;;;11.90;1.00;;;;;;5108745;28;20348;-73
2022/03/11 17:00:43;;;;;;;;;;;11.80;1.00;;;;;;5109522;28;19919;-72
2022/03/11 17:03:09;;;;;;;;;;;;;;;;;;5090534;28;19953;-76
2022/03/11 17:05:35;;;;;;;;;;;11.80;1.00;;;;;;5109461;28;19994;-72
2022/03/11 17:08:00;;;;;;;;;;;11.70;1.00;;;;;;5109434;28;19909;-72
2022/03/11 17:10:26;;;;;;;;;;;11.70;1.00;;;;;;5108380;27;20018;-72
2022/03/11 17:12:51;;;;;;;;;;;11.60;1.00;;;;;;5109347;28;19915;-72
2022/03/11 17:15:17;;;;;;;;;;;11.70;1.00;;;;;;5090255;28;20017;-73
2022/03/11 17:17:43;;;;;;;;;;;11.60;1.00;;;;;;5109355;28;19908;-73
2022/03/11 17:20:09;;;;;;;;;;;;;;;;;;5090148;28;20269;-77
2022/03/11 17:22:36;;;;;;;;;;;11.50;1.00;;;;;;5109020;28;19915;-72
2022/03/11 17:25:04;;;;;;;;;;;11.50;1.00;;;;;;5109121;28;19957;-72
2022/03/11 17:27:29;;;;;;;;;;;11.50;1.00;;;;;;5108262;28;20090;-71
2022/03/11 17:29:55;;;;;;;;;;;11.50;1.00;;;;;;5090710;28;20352;-71
2022/03/11 17:32:20;;;;;;;;;;;11.40;1.00;;;;;;5097435;28;20330;-72
2022/03/11 17:34:46;;;;;;;;;;;11.40;1.00;;;;;;5077100;28;20249;-72
2022/03/11 17:37:12;;;;;;;;;;;11.30;1.00;;;;;;5094591;28;19915;-73
2022/03/11 17:39:37;;;;;;;;;;;11.30;1.00;;;;;;5106217;28;19912;-73
2022/03/11 17:42:03;;;;;;;;;;;11.20;1.00;;;;;;5115606;28;19998;-73
2022/03/11 17:44:28;;;;;;;;;;;11.20;1.00;;;;;;5114767;28;19903;-73
2022/03/11 17:46:54;;;;;;;;;;;11.20;1.00;;;;;;5097254;28;19915;-72
2022/03/11 17:49:22;;;;;;;;;;;11.00;1.00;;;;;;5096411;28;20362;-73
2022/03/11 17:51:47;;;;;;;;;;;11.10;1.00;;;;;;5114818;28;19912;-69
2022/03/11 17:54:13;;;;;;;;;;;11.00;1.00;;;;;;5114566;28;19930;-69
2022/03/11 17:56:38;;;;;;;;;;;10.90;1.00;;;;;;5114973;28;20431;-71
2022/03/11 17:59:04;;;;;;;;;;;11.00;1.00;;;;;;5096915;28;19933;-69
2022/03/11 18:01:29;;;;;;;;;;;11.00;1.00;;;;;;5093604;28;19907;-70
2022/03/11 18:03:55;;;;;;;;;;;10.90;1.00;;;;;;5115027;28;19938;-70
2022/03/11 18:06:21;;;;;;;;;;;10.80;1.00;;;;;;5114414;28;19915;-71
2022/03/11 18:08:46;;;;;;;;;;;10.90;1.00;;;;;;5114738;28;20348;-71
2022/03/11 18:11:12;;;;;;;;;;;;;;;;;;5113138;28;19961;-72
2022/03/11 18:13:38;;;;;;;;;;;10.70;1.00;;;;;;5077259;28;19947;-70
2022/03/11 18:16:04;;;;;;;;;;;10.70;1.00;;;;;;5094543;28;19915;-70
2022/03/11 18:18:29;;;;;;;;;;;10.70;1.00;;;;;;5108458;28;20727;-70
2022/03/11 18:20:55;;;;;;;;;;;;;;;;;;5114640;28;19972;-70
2022/03/11 18:23:22;;;;;;;;;;;10.70;1.00;;;;;;5114083;28;19934;-70
2022/03/11 18:25:47;;;;;;;;;;;10.70;1.00;;;;;;5114303;28;19908;-70
2022/03/11 18:28:13;;;;;;;;;;;;;;;;;;5096484;28;19919;-72
2022/03/11 18:30:39;;;;;;;;;;;10.70;1.00;;;;;;5097838;28;19908;-69
2022/03/11 18:33:05;;;;;;;;;;;10.50;1.00;;;;;;5116182;28;19908;-70
2022/03/11 18:35:36;;;;;;;;;;;10.50;1.00;;;;;;5097142;28;20489;-70
2022/03/11 18:38:02;;;;;;;;;;;10.40;1.00;;;;;;5093146;28;19912;-70
2022/03/11 18:40:30;;;;;;;;;;;10.50;1.00;;;;;;5094861;28;19919;-69
2022/03/11 18:42:55;;;;;;;;;;;10.40;1.00;;;;;;5113367;28;19907;-70
2022/03/11 18:45:21;;;;;;;;;;;10.50;1.00;;;;;;5113696;28;19908;-70
2022/03/11 18:47:46;;;;;;;;;;;10.30;1.00;;;;;;5114304;28;19908;-70
2022/03/11 18:50:13;;;;;;;;;;;;;;;;;;5114264;28;20318;-72
2022/03/11 18:52:38;;;;;;;;;;;10.40;1.00;;;;;;5113368;28;19958;-69
2022/03/11 18:55:04;;;;;;;;;;;10.40;1.00;;;;;;5114201;28;19940;-70
2022/03/11 18:57:30;;;;;;;;;;;10.40;1.00;;;;;;5113441;28;19915;-70
2022/03/11 18:59:58;;;;;;;;;;;10.30;1.00;;;;;;5095878;28;19915;-70
2022/03/11 19:02:23;;;;;;;;;;;10.30;1.00;;;;;;5095032;28;19942;-70
2022/03/11 19:04:49;;;;;;;;;;;10.30;1.00;;;;;;5095726;28;19908;-70
2022/03/11 19:07:15;;;;;;;;;;;;;;;;;;5113567;28;20280;-72
2022/03/11 19:09:40;;;;;;;;;;;10.20;1.00;;;;;;5106570;28;19912;-70
2022/03/11 19:12:06;;;;;;;;;;;10.20;1.00;;;;;;5075262;28;19909;-71
2022/03/11 19:14:32;;;;;;;;;;;10.20;1.00;;;;;;5092646;28;19915;-69
2022/03/11 19:17:02;;;;;;;;;;;10.20;1.00;;;;;;5093429;28;19951;-70
2022/03/11 19:19:30;;;;;;;;;;;;;;;;;;5092140;28;19964;-71
2022/03/11 19:21:56;;;;;;;;;;;10.20;1.00;;;;;;5089492;28;20284;-70
2022/03/11 19:24:22;;;;;;;;;;;10.10;1.00;;;;;;5112890;28;19908;-70
2022/03/11 19:26:49;;;;;;;;;;;10.10;1.00;;;;;;5113515;28;20380;-70
2022/03/11 19:29:15;;;;;;;;;;;;;;;;;;5101499;28;20002;-71
2022/03/11 19:31:44;;;;;;;;;;;10.00;1.00;;;;;;5074457;28;19999;-70
2022/03/11 19:34:11;;;;;;;;;;;10.00;1.00;;;;;;5108709;28;19917;-71
2022/03/11 19:36:37;;;;;;;;;;;10.00;1.00;;;;;;5110379;28;20451;-71
2022/03/11 19:39:05;;;;;;;;;;;9.90;1.00;;;;;;5112950;28;19908;-70
2022/03/11 19:41:32;;;;;;;;;;;10.00;1.00;;;;;;5120623;28;19942;-71
2022/03/11 19:43:58;;;;;;;;;;;10.00;1.00;;;;;;5115042;28;19915;-70
2022/03/11 19:46:24;;;;;;;;;;;;;;;;;;5107344;28;19912;-70
2022/03/11 19:48:50;;;;;;;;;;;9.90;1.00;;;;;;5099660;28;19960;-69
2022/03/11 19:51:16;;;;;;;;;;;;;;;;;;5079613;28;19919;-71
2022/03/11 19:53:41;;;;;;;;;;;9.90;1.00;;;;;;5093162;28;20389;-70
2022/03/11 19:56:07;;;;;;;;;;;9.80;1.00;;;;;;5093133;28;19908;-70
2022/03/11 19:58:34;;;;;;;;;;;9.90;1.00;;;;;;5105167;28;20355;-70
2022/03/11 20:01:02;;;;;;;;;;;9.90;1.00;;;;;;5118873;28;19919;-70
2022/03/11 20:03:28;;;;;;;;;;;;;;;;;;5111922;28;19914;-72
2022/03/11 20:05:53;;;;;;;;;;;9.90;1.00;;;;;;5093474;28;20311;-70
2022/03/11 20:08:19;;;;;;;;;;;;;;;;;;5097524;28;20006;-70
2022/03/11 20:10:48;;;;;;;;;;;9.90;1.00;;;;;;5087736;28;19967;-70
2022/03/11 20:13:14;;;;;;;;;;;;;;;;;;5094009;28;19962;-70
2022/03/11 20:15:41;;;;;;;;;;;9.80;1.00;;;;;;5113519;28;19910;-70
2022/03/11 20:18:11;;;;;;;;;;;9.80;1.00;;;;;;5117065;28;19945;-70
2022/03/11 20:20:40;;;;;;;;;;;9.70;1.00;;;;;;5116082;28;19970;-70
2022/03/11 20:23:06;;;;;;;;;;;9.70;1.00;;;;;;5115738;28;19908;-70
2022/03/11 20:25:32;;;;;;;;;;;9.70;1.00;;;;;;5115726;28;20359;-70
2022/03/11 20:27:57;;;;;;;;;;;9.70;1.00;;;;;;5117914;28;19919;-70
2022/03/11 20:30:24;;;;;;;;;;;;;;;;;;5104316;28;19908;-70
2022/03/11 20:32:49;;;;;;;;;;;9.70;1.00;;;;;;5089206;28;19908;-70
2022/03/11 20:35:15;;;;;;;;;;;9.50;1.00;;;;;;5114436;28;19908;-70
2022/03/11 20:37:41;;;;;;;;;;;9.50;1.00;;;;;;5094904;28;19964;-70
2022/03/11 20:40:09;;;;;;;;;;;9.60;1.00;;;;;;5096333;28;19916;-70
2022/03/11 20:42:35;;;;;;;;;;;9.50;1.00;;;;;;5112415;28;19907;-69
2022/03/11 20:45:00;;;;;;;;;;;9.50;1.00;;;;;;5096175;28;20022;-70
2022/03/11 20:47:26;;;;;;;;;;;9.50;1.00;;;;;;5112896;28;20360;-70
2022/03/11 20:49:56;;;;;;;;;;;9.50;1.00;;;;;;5114679;28;20364;-69
2022/03/11 20:52:23;;;;;;;;;;;;;;;;;;5095289;28;20297;-71
2022/03/11 20:54:49;;;;;;;;;;;9.50;1.00;;;;;;5095242;28;20356;-69
2022/03/11 20:57:14;;;;;;;;;;;9.60;1.00;;;;;;5113788;28;19908;-69
2022/03/11 20:59:40;;;;;;;;;;;9.50;1.00;;;;;;5112049;28;19916;-69
2022/03/11 21:02:10;;;;;;;;;;;;;;;;;;5113735;28;19915;-69
2022/03/11 21:04:36;;;;;;;;;;;;;;;;;;5093893;28;19922;-71
2022/03/11 21:07:04;;;;;;;;;;;9.60;1.00;;;;;;5113394;28;19907;-69
2022/03/11 21:09:31;;;;;;;;;;;9.60;1.00;;;;;;5121709;28;19929;-71
2022/03/11 21:11:57;;;;;;;;;;;;;;;;;;5083653;28;19909;-70
2022/03/11 21:14:23;;;;;;;;;;;;;;;;;;5104065;28;19912;-72
2022/03/11 21:16:49;;;;;;;;;;;9.70;1.00;;;;;;5098945;28;19908;-70
2022/03/11 21:19:15;;;;;;;;;;;9.50;1.00;;;;;;5116808;28;19919;-70
2022/03/11 21:21:41;;;;;;;;;;;9.50;1.00;;;;;;5116659;28;19924;-70
2022/03/11 21:24:08;;;;;;;;;;;9.50;1.00;;;;;;5117697;28;19915;-69
2022/03/11 21:26:34;;;;;;;;;;;9.50;1.00;;;;;;5116580;28;19908;-70
2022/03/11 21:29:03;;;;;;;;;;;9.50;1.00;;;;;;5117235;28;20052;-69
2022/03/11 21:31:29;;;;;;;;;;;9.40;1.00;;;;;;5116231;28;19943;-69
2022/03/11 21:33:55;;;;;;;;;;;9.50;1.00;;;;;;5116210;28;19931;-69
2022/03/11 21:36:21;;;;;;;;;;;;;;;;;;5115808;28;20359;-69
2022/03/11 21:38:47;;;;;;;;;;;9.50;1.00;;;;;;5097904;28;19908;-68
2022/03/11 21:41:13;;;;;;;;;;;9.40;1.00;;;;;;5116726;27;20272;-69
2022/03/11 21:43:39;;;;;;;;;;;9.30;1.00;;;;;;5116617;28;19953;-69
2022/03/11 21:46:05;;;;;;;;;;;9.40;1.00;;;;;;5100172;28;19921;-69
2022/03/11 21:48:31;;;;;;;;;;;9.30;1.00;;;;;;5116425;28;19911;-70
2022/03/11 21:50:56;;;;;;;;;;;9.40;1.00;;;;;;5098881;28;20003;-69
2022/03/11 21:53:22;;;;;;;;;;;;;;;;;;5094476;28;20347;-72
2022/03/11 21:55:48;;;;;;;;;;;9.50;1.00;;;;;;5094203;28;20357;-70
2022/03/11 21:58:14;;;;;;;;;;;9.50;1.00;;;;;;5094873;28;19908;-69
2022/03/11 22:00:40;;;;;;;;;;;9.40;1.00;;;;;;5075894;28;19935;-69
2022/03/11 22:03:06;;;;;;;;;;;9.40;1.00;;;;;;5094858;28;19915;-69
2022/03/11 22:05:33;;;;;;;;;;;9.40;1.00;;;;;;5094169;28;19908;-69
2022/03/11 22:07:59;;;;;;;;;;;9.50;1.00;;;;;;5094809;28;19908;-69
2022/03/11 22:10:24;;;;;;;;;;;9.50;1.00;;;;;;5113095;28;20283;-69
2022/03/11 22:12:50;;;;;;;;;;;9.40;1.00;;;;;;5115995;28;19999;-69
2022/03/11 22:15:16;;;;;;;;;;;9.40;1.00;;;;;;5097852;28;19908;-69
2022/03/11 22:17:42;;;;;;;;;;;9.50;1.00;;;;;;5114668;28;20307;-69
2022/03/11 22:20:08;;;;;;;;;;;9.50;1.00;;;;;;5114660;28;19923;-70
2022/03/11 22:22:35;;;;;;;;;;;9.50;1.00;;;;;;5095912;28;19908;-71
2022/03/11 22:25:00;;;;;;;;;;;9.50;1.00;;;;;;5114824;28;19961;-69
2022/03/11 22:27:26;;;;;;;;;;;;;;;;;;5096266;28;19908;-71
2022/03/11 22:29:52;;;;;;;;;;;9.40;1.00;;;;;;5114438;28;19915;-69
2022/03/11 22:32:18;;;;;;;;;;;9.40;1.00;;;;;;5114706;28;19995;-69
2022/03/11 22:34:44;;;;;;;;;;;9.40;1.00;;;;;;5114412;28;19908;-70
2022/03/11 22:37:10;;;;;;;;;;;9.30;1.00;;;;;;5114833;28;20271;-69
2022/03/11 22:39:35;;;;;;;;;;;9.40;1.00;;;;;;5095615;28;20430;-69
2022/03/11 22:42:01;;;;;;;;;;;9.40;1.00;;;;;;5114294;28;19995;-69
2022/03/11 22:44:27;;;;;;;;;;;;;;;;;;5114215;28;20314;-70